• Join FlightAware (Why Join?)
  • Login
  • US Flag 
04:54AM EST


 

Airport Tracker/Info


-or-


 

Live Flight TrackerFlight Track Log ✈ AM311 ✈ 15-Jul-2013 ✈ YMAV / AVV - YMEN / MEB

Flight Track Log - Related Links

Times and Time Zones

All times are in EDT time to prevent confusion due to time zone crossing. See the AM311 flight status page for this flight to view local times or setup timezone preferences in your user account.

Time Position Orientation Groundspeed Altitude Reporting Facility
EDT Latitude Longitude Course Direction KTS MPH feet Rate Location/Type
02:07PM -38.0489 144.4589 152° Southeast 5,000  Level Aus ATC (Calculated)
02:07PM -38.0740 144.4760 127° Southeast 161 185 1,700 -2,100 Descending FlightAware
02:08PM -38.0198 144.5326 206° Southwest 5,000 1,800 Climbing Aus ATC (Calculated)
02:08PM -38.0600 144.5080 61° Northeast 148 170 2,900 -1,200 Descending FlightAware
02:08PM -38.0430 144.5210 61° Northeast 153 176 3,900 1,800 Climbing FlightAware
02:09PM -37.9907 144.6063 235° Southwest 5,000 1,560 Climbing Aus ATC (Calculated)
02:09PM -38.0270 144.5410 45° Northeast 171 197 4,700 -120 Descending FlightAware
02:09PM -38.0070 144.5660 45° Northeast 212 244 4,900 180 Climbing FlightAware
02:10PM -37.9907 144.6063 266° West 5,000  Climbing Aus ATC (Calculated)
02:10PM -37.9920 144.5850 45° Northeast 228 262 4,900 -120 Descending FlightAware
02:10PM -37.9660 144.6170 45° Northeast 235 270 4,900  Level FlightAware
02:11PM -37.9270 144.6650 44° Northeast 238 274 4,900  Level FlightAware
02:12PM -37.9030 144.6950 45° Northeast 238 274 4,900  Level FlightAware
02:12PM -37.8920 144.7090 45° Northeast 238 274 4,900  Level FlightAware
02:12PM -37.8809 144.7902 281° West 700  Descending Aus ATC (Calculated)
02:12PM -37.8720 144.7330 45° Northeast 239 275 4,900 7,740 Climbing FlightAware
02:13PM -37.8590 144.7490 44° Northeast 241 277 4,700 -1,200 Descending FlightAware
02:13PM -37.8809 144.7902 350° North 700 -1,440 Descending Aus ATC (Calculated)
02:13PM -37.8370 144.7800 48° Northeast 234 269 4,000 2,880 Climbing FlightAware
02:14PM -37.8220 144.8130 48° Northeast 221 254 3,200 -1,680 Descending FlightAware
02:14PM -37.8100 144.8410 62° Northeast 205 236 2,500 -1,320 Descending FlightAware
02:14PM -37.7990 144.8670 62° Northeast 180 207 2,100 -1,140 Descending FlightAware
02:15PM -37.7870 144.8950 62° Northeast 150 173 1,400 -1,080 Descending FlightAware
02:15PM -37.7267 144.9000 179° South 700 -600 Descending Aus ATC (Calculated)
02:15PM -37.7267 144.9000 179° South 700 6,000 Level Aus ATC (Calculated)
02:15PM -37.7820 144.9010 43° Northeast 140 161 1,300 1,500 Climbing FlightAware
02:15PM -37.7770 144.9030 18° North 128 147 1,100 -960 Descending FlightAware
02:16PM -37.7680 144.9030 18° North 121 139 900 4,680 Descending FlightAware
02:16PM -37.8370 144.7790 235° Southwest 235 270 4,000 3,540 Climbing FlightAware
02:16PM -37.8310 144.7940 63° Northeast 228 262 3,700 -1,320 Descending FlightAware
02:17PM -37.8160 144.8270 60° Northeast 212 244 2,900 -1,800 Descending FlightAware
02:17PM -37.8010 144.8620 62° Northeast 188 216 2,100 -1,500 Descending FlightAware
02:17PM -37.7970 144.8740 62° Northeast 174 200 1,900 -1,140 Descending FlightAware